Shin Mei Maru — JG5617 — position and weather

sailwx.info

Track history (hours):
 
Tides and Currents Weather Stations Pressure Air Temp Water Temp Dewpoint Dewpoint Depression Visibility Wind Speed Wind Dir Waves Ship Positions

Shin Mei Maru

Last reported at 2016-Apr-30 20:17 UTC. Time now 2016-May-02 05:59 UTC.
Position N 36°35' E 141°06'.

Length 160 m; draft 6.7 m.

Type: Cargo ship. MMSI: 431100922.

Date/timePositionNaut miles runAvg speedWind from/ knotsBaromVisibWave heightAir tempDewpointWater temp
2016-Apr-30 20:17N 36°35' E 141°06'1317.2
2016-Apr-30 19:33N 36°23' E 141°04'1717.3
2016-Apr-30 18:33N 36°05' E 141°03'1717.2
2016-Apr-30 17:34N 35°48' E 141°01'1717.1
2016-Apr-30 16:33N 35°32' E 140°54'1919.5
2016-Apr-30 15:34N 35°17' E 140°39'1919.0
2016-Apr-30 14:33N 35°03' E 140°23'1818.1
2016-Apr-30 13:33N 34°54' E 140°03'1615.8
2016-Apr-30 12:34N 34°55' E 139°44'1717.0
2016-Apr-30 11:34N 35°12' E 139°46'1313.1
2016-Apr-30 10:33N 35°25' E 139°44'1212.2
2016-Apr-30 09:33N 35°37' E 139°46'1 0.8
2016-Apr-30 08:33N 35°38' E 139°46'0 0.0
2016-Apr-30 07:30N 35°38' E 139°46'0 0.0
2016-Apr-30 06:33N 35°38' E 139°46'0 0.0
2016-Apr-30 05:33N 35°38' E 139°46'1 0.5
2016-Apr-30 04:34N 35°37' E 139°46'1313.3
2016-Apr-30 03:33N 35°24' E 139°46'1212.2
2016-Apr-30 02:33N 35°12' E 139°47'24816.4
2016-Apr-29 11:28N 33°59' E 134°59'1921.1
2016-Apr-29 10:33N 34°18' E 134°59'2120.5
2016-Apr-29 09:33N 34°33' E 135°16'8 6.8
2016-Apr-29 08:22N 34°37' E 135°25'0 0.0
2016-Apr-29 06:28N 34°37' E 135°25'0 0.0
2016-Apr-29 05:28N 34°37' E 135°25'0 0.0
2016-Apr-29 03:22N 34°37' E 135°25'7 8.8
2016-Apr-29 02:34N 34°33' E 135°18'1817.6
2016-Apr-29 01:34N 34°20' E 135°03'1616.1
2016-Apr-29 00:34N 34°04' E 134°59'23314.6
2016-Apr-28 08:33N 35°02' E 139°34'1616.4
2016-Apr-28 07:34N 35°15' E 139°46'1313.4
2016-Apr-28 06:34N 35°28' E 139°49'10 9.7
2016-Apr-28 05:33N 35°38' E 139°46'0 0.0
2016-Apr-28 04:33N 35°38' E 139°46'0 0.0
2016-Apr-28 03:33N 35°38' E 139°46'0 0.0
2016-Apr-28 02:33N 35°38' E 139°46'0 0.0
2016-Apr-28 01:33N 35°38' E 139°46'0 0.0
2016-Apr-28 00:33N 35°38' E 139°46'0 0.0
2016-Apr-27 23:33N 35°38' E 139°46'0 0.0
2016-Apr-27 22:33N 35°38' E 139°46'0 0.2
2016-Apr-27 21:33N 35°38' E 139°46'1212.5
2016-Apr-27 20:33N 35°25' E 139°47'1212.1
2016-Apr-27 19:34N 35°13' E 139°47'1717.0
2016-Apr-27 18:34N 34°57' E 139°42'1414.0
2016-Apr-27 17:33N 34°53' E 139°59'1717.3
2016-Apr-27 16:33N 35°03' E 140°16'1716.3
2016-Apr-27 15:33N 35°12' E 140°33'1716.9
2016-Apr-27 14:33N 35°26' E 140°45'1817.7
2016-Apr-27 13:33N 35°41' E 140°56'2017.9
2016-Apr-27 12:27N 36°00' E 141°02'  
2016-Apr-23 19:16N 36°08' E 141°03'1216.9
2016-Apr-23 18:33N 35°56' E 141°02'1717.5
2016-Apr-23 17:34N 35°39' E 140°60'1918.6
2016-Apr-23 16:33N 35°24' E 140°46'2019.6
2016-Apr-23 15:33N 35°09' E 140°31'1918.9
2016-Apr-23 14:33N 34°58' E 140°12'1817.2
2016-Apr-23 13:32N 34°52' E 139°52'1515.4
2016-Apr-23 12:34N 35°05' E 139°43'1414.2
2016-Apr-23 11:34N 35°19' E 139°43'1515.3
2016-Apr-23 10:34N 35°33' E 139°50'6 5.6
2016-Apr-23 09:33N 35°38' E 139°46'0 0.0
2016-Apr-23 08:33N 35°38' E 139°46'0 0.0
2016-Apr-23 07:27N 35°38' E 139°46'0 0.0
2016-Apr-23 06:33N 35°38' E 139°46'0 0.0
2016-Apr-23 05:33N 35°38' E 139°46'4 4.5
2016-Apr-23 04:34N 35°34' E 139°49'1414.0
2016-Apr-23 03:33N 35°21' E 139°45'1414.2
2016-Apr-23 02:33N 35°06' E 139°45'2119.4
2016-Apr-23 01:30N 34°53' E 139°27'5919.7
2016-Apr-22 22:30N 34°23' E 138°25'17117.2
2016-Apr-22 12:33N 34°01' E 134°60'1919.2
2016-Apr-22 11:33N 34°20' E 134°60'2019.7
2016-Apr-22 10:34N 34°35' E 135°15'8 6.7
2016-Apr-22 09:21N 34°37' E 135°25'0 0.0
2016-Apr-22 08:24N 34°37' E 135°25'0 0.0
2016-Apr-22 07:24N 34°37' E 135°25'0 0.0
2016-Apr-22 06:30N 34°37' E 135°25'0 0.0
2016-Apr-22 05:30N 34°37' E 135°25'0 0.0
2016-Apr-22 04:30N 34°37' E 135°25'0 0.0
2016-Apr-22 02:30N 34°37' E 135°25'0 0.0
2016-Apr-22 01:30N 34°37' E 135°25'8 8.7
2016-Apr-22 00:32N 34°32' E 135°17'1919.7
2016-Apr-21 23:33N 34°18' E 135°00'2019.6
2016-Apr-21 22:32N 33°58' E 134°60'23914.8
2016-Apr-21 06:22N 35°04' E 139°39'1316.0
2016-Apr-21 05:32N 35°16' E 139°46'1312.8
2016-Apr-21 04:34N 35°28' E 139°49'10 9.7
2016-Apr-21 03:33N 35°38' E 139°46'0 0.0
2016-Apr-21 02:31N 35°38' E 139°46'0 0.0
2016-Apr-21 01:31N 35°38' E 139°46'0 0.0
2016-Apr-21 00:28N 35°38' E 139°46'0 0.0
2016-Apr-20 23:31N 35°38' E 139°46'0 0.0
2016-Apr-20 22:31N 35°38' E 139°46'3 3.3
2016-Apr-20 21:33N 35°35' E 139°48'1313.5
2016-Apr-20 20:33N 35°22' E 139°45'  
Track history (hours):
 
Tides and Currents Weather Stations Pressure Air Temp Water Temp Dewpoint Dewpoint Depression Visibility Wind Speed Wind Dir Waves Ship Positions

Shin Mei Maru

Last reported at 2016-Apr-30 20:17 UTC. Time now 2016-May-02 05:59 UTC.
Position N 36°35' E 141°06'.

Length 160 m; draft 6.7 m.

Type: Cargo ship. MMSI: 431100922.

Date/timePositionNaut miles runAvg speedWind from/ knotsBaromVisibWave heightAir tempDewpointWater temp
2016-Apr-30 20:17N 36°35' E 141°06'1317.2
2016-Apr-30 19:33N 36°23' E 141°04'1717.3
2016-Apr-30 18:33N 36°05' E 141°03'1717.2
2016-Apr-30 17:34N 35°48' E 141°01'1717.1
2016-Apr-30 16:33N 35°32' E 140°54'1919.5
2016-Apr-30 15:34N 35°17' E 140°39'1919.0
2016-Apr-30 14:33N 35°03' E 140°23'1818.1
2016-Apr-30 13:33N 34°54' E 140°03'1615.8
2016-Apr-30 12:34N 34°55' E 139°44'1717.0
2016-Apr-30 11:34N 35°12' E 139°46'1313.1
2016-Apr-30 10:33N 35°25' E 139°44'1212.2
2016-Apr-30 09:33N 35°37' E 139°46'1 0.8
2016-Apr-30 08:33N 35°38' E 139°46'0 0.0
2016-Apr-30 07:30N 35°38' E 139°46'0 0.0
2016-Apr-30 06:33N 35°38' E 139°46'0 0.0
2016-Apr-30 05:33N 35°38' E 139°46'1 0.5
2016-Apr-30 04:34N 35°37' E 139°46'1313.3
2016-Apr-30 03:33N 35°24' E 139°46'1212.2
2016-Apr-30 02:33N 35°12' E 139°47'24816.4
2016-Apr-29 11:28N 33°59' E 134°59'1921.1
2016-Apr-29 10:33N 34°18' E 134°59'2120.5
2016-Apr-29 09:33N 34°33' E 135°16'8 6.8
2016-Apr-29 08:22N 34°37' E 135°25'0 0.0
2016-Apr-29 06:28N 34°37' E 135°25'0 0.0
2016-Apr-29 05:28N 34°37' E 135°25'0 0.0
2016-Apr-29 03:22N 34°37' E 135°25'7 8.8
2016-Apr-29 02:34N 34°33' E 135°18'1817.6
2016-Apr-29 01:34N 34°20' E 135°03'1616.1
2016-Apr-29 00:34N 34°04' E 134°59'23314.6
2016-Apr-28 08:33N 35°02' E 139°34'1616.4
2016-Apr-28 07:34N 35°15' E 139°46'1313.4
2016-Apr-28 06:34N 35°28' E 139°49'10 9.7
2016-Apr-28 05:33N 35°38' E 139°46'0 0.0
2016-Apr-28 04:33N 35°38' E 139°46'0 0.0
2016-Apr-28 03:33N 35°38' E 139°46'0 0.0
2016-Apr-28 02:33N 35°38' E 139°46'0 0.0
2016-Apr-28 01:33N 35°38' E 139°46'0 0.0
2016-Apr-28 00:33N 35°38' E 139°46'0 0.0
2016-Apr-27 23:33N 35°38' E 139°46'0 0.0
2016-Apr-27 22:33N 35°38' E 139°46'0 0.2
2016-Apr-27 21:33N 35°38' E 139°46'1212.5
2016-Apr-27 20:33N 35°25' E 139°47'1212.1
2016-Apr-27 19:34N 35°13' E 139°47'1717.0
2016-Apr-27 18:34N 34°57' E 139°42'1414.0
2016-Apr-27 17:33N 34°53' E 139°59'1717.3
2016-Apr-27 16:33N 35°03' E 140°16'1716.3
2016-Apr-27 15:33N 35°12' E 140°33'1716.9
2016-Apr-27 14:33N 35°26' E 140°45'1817.7
2016-Apr-27 13:33N 35°41' E 140°56'2017.9
2016-Apr-27 12:27N 36°00' E 141°02'  
2016-Apr-23 19:16N 36°08' E 141°03'1216.9
2016-Apr-23 18:33N 35°56' E 141°02'1717.5
2016-Apr-23 17:34N 35°39' E 140°60'1918.6
2016-Apr-23 16:33N 35°24' E 140°46'2019.6
2016-Apr-23 15:33N 35°09' E 140°31'1918.9
2016-Apr-23 14:33N 34°58' E 140°12'1817.2
2016-Apr-23 13:32N 34°52' E 139°52'1515.4
2016-Apr-23 12:34N 35°05' E 139°43'1414.2
2016-Apr-23 11:34N 35°19' E 139°43'1515.3
2016-Apr-23 10:34N 35°33' E 139°50'6 5.6
2016-Apr-23 09:33N 35°38' E 139°46'0 0.0
2016-Apr-23 08:33N 35°38' E 139°46'0 0.0
2016-Apr-23 07:27N 35°38' E 139°46'0 0.0
2016-Apr-23 06:33N 35°38' E 139°46'0 0.0
2016-Apr-23 05:33N 35°38' E 139°46'4 4.5
2016-Apr-23 04:34N 35°34' E 139°49'1414.0
2016-Apr-23 03:33N 35°21' E 139°45'1414.2
2016-Apr-23 02:33N 35°06' E 139°45'2119.4
2016-Apr-23 01:30N 34°53' E 139°27'5919.7
2016-Apr-22 22:30N 34°23' E 138°25'17117.2
2016-Apr-22 12:33N 34°01' E 134°60'1919.2
2016-Apr-22 11:33N 34°20' E 134°60'2019.7
2016-Apr-22 10:34N 34°35' E 135°15'8 6.7
2016-Apr-22 09:21N 34°37' E 135°25'0 0.0
2016-Apr-22 08:24N 34°37' E 135°25'0 0.0
2016-Apr-22 07:24N 34°37' E 135°25'0 0.0
2016-Apr-22 06:30N 34°37' E 135°25'0 0.0
2016-Apr-22 05:30N 34°37' E 135°25'0 0.0
2016-Apr-22 04:30N 34°37' E 135°25'0 0.0
2016-Apr-22 02:30N 34°37' E 135°25'0 0.0
2016-Apr-22 01:30N 34°37' E 135°25'8 8.7
2016-Apr-22 00:32N 34°32' E 135°17'1919.7
2016-Apr-21 23:33N 34°18' E 135°00'2019.6
2016-Apr-21 22:32N 33°58' E 134°60'23914.8
2016-Apr-21 06:22N 35°04' E 139°39'1316.0
2016-Apr-21 05:32N 35°16' E 139°46'1312.8
2016-Apr-21 04:34N 35°28' E 139°49'10 9.7
2016-Apr-21 03:33N 35°38' E 139°46'0 0.0
2016-Apr-21 02:31N 35°38' E 139°46'0 0.0
2016-Apr-21 01:31N 35°38' E 139°46'0 0.0
2016-Apr-21 00:28N 35°38' E 139°46'0 0.0
2016-Apr-20 23:31N 35°38' E 139°46'0 0.0
2016-Apr-20 22:31N 35°38' E 139°46'3 3.3
2016-Apr-20 21:33N 35°35' E 139°48'1313.5
2016-Apr-20 20:33N 35°22' E 139°45'  

Dump ship's entire track history